sensor_id;sensor_type;location;lat;lon;timestamp;pressure;altitude;pressure_sealevel;temperature;humidity
6829;BME280;17930;48.592;8.868;2022-09-09T00:02:27;96434.72;;;14.83;100.00
6829;BME280;17930;48.592;8.868;2022-09-09T00:04:58;96430.56;;;14.90;100.00
6829;BME280;17930;48.592;8.868;2022-09-09T00:07:38;96427.28;;;14.68;100.00
6829;BME280;17930;48.592;8.868;2022-09-09T00:10:16;96428.31;;;14.58;100.00
6829;BME280;17930;48.592;8.868;2022-09-09T00:12:51;96418.44;;;14.55;100.00
6829;BME280;17930;48.592;8.868;2022-09-09T00:15:23;96427.59;;;14.66;100.00
6829;BME280;17930;48.592;8.868;2022-09-09T00:17:56;96421.06;;;14.55;100.00
6829;BME280;17930;48.592;8.868;2022-09-09T00:20:28;96422.72;;;14.51;100.00
6829;BME280;17930;48.592;8.868;2022-09-09T00:23:07;96420.09;;;14.51;100.00
6829;BME280;17930;48.592;8.868;2022-09-09T00:25:41;96421.69;;;14.61;100.00
6829;BME280;17930;48.592;8.868;2022-09-09T00:28:13;96424.69;;;14.76;100.00
6829;BME280;17930;48.592;8.868;2022-09-09T00:30:43;96424.06;;;14.79;100.00
6829;BME280;17930;48.592;8.868;2022-09-09T00:33:13;96418.03;;;14.79;100.00
6829;BME280;17930;48.592;8.868;2022-09-09T00:35:44;96426.22;;;14.77;100.00
6829;BME280;17930;48.592;8.868;2022-09-09T00:38:14;96422.84;;;14.93;100.00
6829;BME280;17930;48.592;8.868;2022-09-09T00:40:46;96413.72;;;14.83;100.00
6829;BME280;17930;48.592;8.868;2022-09-09T00:43:24;96408.97;;;14.93;100.00
6829;BME280;17930;48.592;8.868;2022-09-09T00:46:15;96410.31;;;14.82;100.00
6829;BME280;17930;48.592;8.868;2022-09-09T00:48:56;96413.72;;;14.83;100.00
6829;BME280;17930;48.592;8.868;2022-09-09T00:51:34;96410.97;;;14.87;100.00
6829;BME280;17930;48.592;8.868;2022-09-09T00:54:17;96416.34;;;14.91;100.00
6829;BME280;17930;48.592;8.868;2022-09-09T00:56:57;96424.09;;;14.87;100.00
6829;BME280;17930;48.592;8.868;2022-09-09T00:59:35;96429.50;;;14.91;100.00
6829;BME280;17930;48.592;8.868;2022-09-09T01:02:15;96434.03;;;14.60;100.00
6829;BME280;17930;48.592;8.868;2022-09-09T01:04:44;96426.97;;;14.31;100.00
6829;BME280;17930;48.592;8.868;2022-09-09T01:07:15;96431.22;;;14.10;100.00
6829;BME280;17930;48.592;8.868;2022-09-09T01:09:51;96431.09;;;13.93;100.00
6829;BME280;17930;48.592;8.868;2022-09-09T01:12:25;96440.25;;;13.82;100.00
6829;BME280;17930;48.592;8.868;2022-09-09T01:15:00;96438.59;;;13.64;100.00
6829;BME280;17930;48.592;8.868;2022-09-09T01:17:32;96424.94;;;13.54;100.00
6829;BME280;17930;48.592;8.868;2022-09-09T01:20:08;96422.88;;;13.42;100.00
6829;BME280;17930;48.592;8.868;2022-09-09T01:22:44;96419.03;;;13.27;100.00
6829;BME280;17930;48.592;8.868;2022-09-09T01:25:56;96426.91;;;13.27;100.00
6829;BME280;17930;48.592;8.868;2022-09-09T01:28:31;96428.66;;;13.18;100.00
6829;BME280;17930;48.592;8.868;2022-09-09T01:31:02;96436.63;;;13.13;100.00
6829;BME280;17930;48.592;8.868;2022-09-09T01:33:29;96436.41;;;13.23;100.00
6829;BME280;17930;48.592;8.868;2022-09-09T01:36:00;96429.75;;;13.38;100.00
6829;BME280;17930;48.592;8.868;2022-09-09T01:38:29;96431.97;;;13.45;100.00
6829;BME280;17930;48.592;8.868;2022-09-09T01:40:57;96428.94;;;13.51;100.00
6829;BME280;17930;48.592;8.868;2022-09-09T01:43:25;96426.59;;;13.50;100.00
6829;BME280;17930;48.592;8.868;2022-09-09T01:45:54;96438.69;;;13.37;100.00
6829;BME280;17930;48.592;8.868;2022-09-09T01:48:23;96439.34;;;13.43;100.00
6829;BME280;17930;48.592;8.868;2022-09-09T01:50:50;96448.53;;;13.32;100.00
6829;BME280;17930;48.592;8.868;2022-09-09T01:53:18;96444.94;;;13.28;100.00
6829;BME280;17930;48.592;8.868;2022-09-09T01:56:02;96444.03;;;13.11;100.00
6829;BME280;17930;48.592;8.868;2022-09-09T01:58:44;96446.13;;;13.09;100.00
6829;BME280;17930;48.592;8.868;2022-09-09T02:01:20;96446.28;;;13.26;100.00
6829;BME280;17930;48.592;8.868;2022-09-09T02:03:52;96440.59;;;13.45;100.00
6829;BME280;17930;48.592;8.868;2022-09-09T02:06:26;96443.75;;;13.34;100.00
6829;BME280;17930;48.592;8.868;2022-09-09T02:08:56;96436.16;;;13.11;100.00
6829;BME280;17930;48.592;8.868;2022-09-09T02:11:27;96436.44;;;13.09;100.00
6829;BME280;17930;48.592;8.868;2022-09-09T02:13:57;96438.03;;;12.97;100.00
6829;BME280;17930;48.592;8.868;2022-09-09T02:16:30;96450.16;;;12.93;100.00
6829;BME280;17930;48.592;8.868;2022-09-09T02:19:03;96447.16;;;12.86;100.00
6829;BME280;17930;48.592;8.868;2022-09-09T02:21:34;96445.59;;;12.98;100.00
6829;BME280;17930;48.592;8.868;2022-09-09T02:24:05;96446.78;;;12.92;100.00
6829;BME280;17930;48.592;8.868;2022-09-09T02:26:39;96433.94;;;12.91;100.00
6829;BME280;17930;48.592;8.868;2022-09-09T02:29:09;96442.56;;;12.78;100.00
6829;BME280;17930;48.592;8.868;2022-09-09T02:31:39;96442.97;;;12.85;100.00
6829;BME280;17930;48.592;8.868;2022-09-09T02:34:09;96441.97;;;12.81;100.00
6829;BME280;17930;48.592;8.868;2022-09-09T02:36:38;96439.56;;;12.71;100.00
6829;BME280;17930;48.592;8.868;2022-09-09T02:39:10;96430.28;;;12.52;100.00
6829;BME280;17930;48.592;8.868;2022-09-09T02:41:40;96418.94;;;12.43;100.00
6829;BME280;17930;48.592;8.868;2022-09-09T02:44:10;96430.25;;;12.38;100.00
6829;BME280;17930;48.592;8.868;2022-09-09T02:46:52;96431.34;;;12.37;100.00
6829;BME280;17930;48.592;8.868;2022-09-09T02:49:30;96429.50;;;12.51;100.00
6829;BME280;17930;48.592;8.868;2022-09-09T02:52:04;96419.63;;;12.62;100.00
6829;BME280;17930;48.592;8.868;2022-09-09T02:54:33;96419.31;;;12.63;100.00
6829;BME280;17930;48.592;8.868;2022-09-09T02:57:07;96423.41;;;12.56;100.00
6829;BME280;17930;48.592;8.868;2022-09-09T02:59:35;96429.88;;;12.58;100.00
6829;BME280;17930;48.592;8.868;2022-09-09T03:02:02;96440.94;;;12.55;100.00
6829;BME280;17930;48.592;8.868;2022-09-09T03:04:29;96437.03;;;12.53;100.00
6829;BME280;17930;48.592;8.868;2022-09-09T03:06:56;96438.03;;;12.43;100.00
6829;BME280;17930;48.592;8.868;2022-09-09T03:09:24;96434.06;;;12.86;100.00
6829;BME280;17930;48.592;8.868;2022-09-09T03:11:51;96436.38;;;12.87;100.00
6829;BME280;17930;48.592;8.868;2022-09-09T03:14:19;96438.25;;;12.87;100.00
6829;BME280;17930;48.592;8.868;2022-09-09T03:16:47;96428.03;;;12.72;100.00
6829;BME280;17930;48.592;8.868;2022-09-09T03:19:13;96426.84;;;12.78;100.00
6829;BME280;17930;48.592;8.868;2022-09-09T03:21:40;96433.38;;;12.67;100.00
6829;BME280;17930;48.592;8.868;2022-09-09T03:24:07;96423.47;;;12.77;100.00
6829;BME280;17930;48.592;8.868;2022-09-09T03:26:34;96422.72;;;12.77;100.00
6829;BME280;17930;48.592;8.868;2022-09-09T03:29:03;96417.28;;;12.87;100.00
6829;BME280;17930;48.592;8.868;2022-09-09T03:31:33;96419.41;;;12.85;100.00
6829;BME280;17930;48.592;8.868;2022-09-09T03:34:01;96428.88;;;12.81;100.00
6829;BME280;17930;48.592;8.868;2022-09-09T03:36:28;96434.34;;;12.58;100.00
6829;BME280;17930;48.592;8.868;2022-09-09T03:38:55;96425.63;;;12.62;100.00
6829;BME280;17930;48.592;8.868;2022-09-09T03:41:22;96431.75;;;12.44;100.00
6829;BME280;17930;48.592;8.868;2022-09-09T03:43:50;96431.63;;;12.23;100.00
6829;BME280;17930;48.592;8.868;2022-09-09T03:46:17;96432.44;;;12.05;100.00
6829;BME280;17930;48.592;8.868;2022-09-09T03:48:45;96446.63;;;12.17;100.00
6829;BME280;17930;48.592;8.868;2022-09-09T03:51:12;96440.41;;;12.13;100.00
6829;BME280;17930;48.592;8.868;2022-09-09T03:53:39;96429.78;;;12.36;100.00
6829;BME280;17930;48.592;8.868;2022-09-09T03:56:06;96434.16;;;12.41;100.00
6829;BME280;17930;48.592;8.868;2022-09-09T03:58:34;96429.13;;;12.58;100.00
6829;BME280;17930;48.592;8.868;2022-09-09T04:01:02;96436.47;;;12.82;100.00
6829;BME280;17930;48.592;8.868;2022-09-09T04:03:30;96432.59;;;12.93;100.00
6829;BME280;17930;48.592;8.868;2022-09-09T04:06:00;96433.03;;;13.09;100.00
6829;BME280;17930;48.592;8.868;2022-09-09T04:08:27;96427.59;;;13.19;100.00
6829;BME280;17930;48.592;8.868;2022-09-09T04:10:55;96422.41;;;13.40;100.00
6829;BME280;17930;48.592;8.868;2022-09-09T04:13:23;96419.28;;;13.38;100.00
6829;BME280;17930;48.592;8.868;2022-09-09T04:15:51;96423.16;;;13.41;100.00
6829;BME280;17930;48.592;8.868;2022-09-09T04:18:18;96429.66;;;13.43;100.00
6829;BME280;17930;48.592;8.868;2022-09-09T04:20:46;96432.66;;;13.50;100.00
6829;BME280;17930;48.592;8.868;2022-09-09T04:23:14;96434.00;;;13.48;100.00
6829;BME280;17930;48.592;8.868;2022-09-09T04:25:44;96427.16;;;13.60;100.00
6829;BME280;17930;48.592;8.868;2022-09-09T04:28:12;96433.59;;;13.76;100.00
6829;BME280;17930;48.592;8.868;2022-09-09T04:30:39;96425.19;;;13.87;100.00
6829;BME280;17930;48.592;8.868;2022-09-09T04:33:06;96428.91;;;13.95;100.00
6829;BME280;17930;48.592;8.868;2022-09-09T04:35:32;96436.19;;;13.98;100.00
6829;BME280;17930;48.592;8.868;2022-09-09T04:37:59;96432.13;;;14.14;100.00
6829;BME280;17930;48.592;8.868;2022-09-09T04:40:29;96430.47;;;14.18;100.00
6829;BME280;17930;48.592;8.868;2022-09-09T04:42:57;96428.66;;;14.05;100.00
6829;BME280;17930;48.592;8.868;2022-09-09T04:45:24;96442.09;;;14.03;100.00
6829;BME280;17930;48.592;8.868;2022-09-09T04:47:52;96442.31;;;14.07;100.00
6829;BME280;17930;48.592;8.868;2022-09-09T04:50:19;96440.75;;;14.06;100.00
6829;BME280;17930;48.592;8.868;2022-09-09T04:52:46;96447.88;;;13.92;100.00
6829;BME280;17930;48.592;8.868;2022-09-09T04:55:13;96447.78;;;13.97;100.00
6829;BME280;17930;48.592;8.868;2022-09-09T04:57:41;96447.97;;;13.87;100.00
6829;BME280;17930;48.592;8.868;2022-09-09T05:00:09;96444.44;;;13.83;100.00
6829;BME280;17930;48.592;8.868;2022-09-09T05:02:37;96438.66;;;13.94;100.00
6829;BME280;17930;48.592;8.868;2022-09-09T05:05:06;96445.16;;;14.05;100.00
6829;BME280;17930;48.592;8.868;2022-09-09T05:07:33;96440.16;;;13.95;100.00
6829;BME280;17930;48.592;8.868;2022-09-09T05:10:00;96444.31;;;13.88;100.00
6829;BME280;17930;48.592;8.868;2022-09-09T05:12:29;96450.63;;;14.09;100.00
6829;BME280;17930;48.592;8.868;2022-09-09T05:14:58;96451.88;;;14.11;100.00
6829;BME280;17930;48.592;8.868;2022-09-09T05:17:24;96456.22;;;14.16;100.00
6829;BME280;17930;48.592;8.868;2022-09-09T05:19:51;96454.69;;;14.15;100.00
6829;BME280;17930;48.592;8.868;2022-09-09T05:22:18;96464.06;;;14.07;100.00
6829;BME280;17930;48.592;8.868;2022-09-09T05:24:46;96469.69;;;14.01;100.00
6829;BME280;17930;48.592;8.868;2022-09-09T05:27:16;96464.34;;;14.06;100.00
6829;BME280;17930;48.592;8.868;2022-09-09T05:29:43;96460.38;;;14.08;100.00
6829;BME280;17930;48.592;8.868;2022-09-09T05:32:12;96461.78;;;14.14;100.00
6829;BME280;17930;48.592;8.868;2022-09-09T05:34:40;96465.06;;;14.20;100.00
6829;BME280;17930;48.592;8.868;2022-09-09T05:37:07;96464.91;;;14.25;100.00
6829;BME280;17930;48.592;8.868;2022-09-09T05:39:33;96476.06;;;14.30;100.00
6829;BME280;17930;48.592;8.868;2022-09-09T05:42:01;96471.19;;;14.45;100.00
6829;BME280;17930;48.592;8.868;2022-09-09T05:44:30;96473.13;;;14.70;100.00
6829;BME280;17930;48.592;8.868;2022-09-09T05:46:57;96467.88;;;14.70;100.00
6829;BME280;17930;48.592;8.868;2022-09-09T05:49:25;96471.94;;;14.76;100.00
6829;BME280;17930;48.592;8.868;2022-09-09T05:51:52;96469.78;;;14.78;100.00
6829;BME280;17930;48.592;8.868;2022-09-09T05:54:19;96467.78;;;14.84;100.00
6829;BME280;17930;48.592;8.868;2022-09-09T05:56:45;96458.84;;;14.85;100.00
6829;BME280;17930;48.592;8.868;2022-09-09T05:59:12;96468.59;;;15.01;100.00
6829;BME280;17930;48.592;8.868;2022-09-09T06:01:40;96470.38;;;15.22;100.00
6829;BME280;17930;48.592;8.868;2022-09-09T06:04:07;96468.53;;;15.23;100.00
6829;BME280;17930;48.592;8.868;2022-09-09T06:06:36;96474.97;;;15.17;100.00
6829;BME280;17930;48.592;8.868;2022-09-09T06:09:06;96479.16;;;15.18;100.00
6829;BME280;17930;48.592;8.868;2022-09-09T06:11:36;96481.97;;;15.21;100.00
6829;BME280;17930;48.592;8.868;2022-09-09T06:14:03;96476.72;;;15.30;100.00
6829;BME280;17930;48.592;8.868;2022-09-09T06:16:31;96481.97;;;15.30;100.00
6829;BME280;17930;48.592;8.868;2022-09-09T06:18:59;96479.34;;;15.38;100.00
6829;BME280;17930;48.592;8.868;2022-09-09T06:21:27;96471.16;;;15.56;100.00
6829;BME280;17930;48.592;8.868;2022-09-09T06:23:56;96468.09;;;15.71;100.00
6829;BME280;17930;48.592;8.868;2022-09-09T06:26:24;96473.34;;;15.88;100.00
6829;BME280;17930;48.592;8.868;2022-09-09T06:28:52;96473.78;;;15.82;100.00
6829;BME280;17930;48.592;8.868;2022-09-09T06:31:21;96485.09;;;15.82;100.00
6829;BME280;17930;48.592;8.868;2022-09-09T06:33:49;96480.91;;;15.89;100.00
6829;BME280;17930;48.592;8.868;2022-09-09T06:36:18;96481.34;;;16.17;100.00
6829;BME280;17930;48.592;8.868;2022-09-09T06:38:45;96484.75;;;16.26;100.00
6829;BME280;17930;48.592;8.868;2022-09-09T06:41:15;96486.75;;;16.20;100.00
6829;BME280;17930;48.592;8.868;2022-09-09T06:43:43;96488.63;;;16.28;100.00
6829;BME280;17930;48.592;8.868;2022-09-09T06:46:11;96484.75;;;16.26;100.00
6829;BME280;17930;48.592;8.868;2022-09-09T06:48:39;96490.16;;;16.29;100.00
6829;BME280;17930;48.592;8.868;2022-09-09T06:51:09;96494.34;;;16.22;100.00
6829;BME280;17930;48.592;8.868;2022-09-09T06:53:38;96493.06;;;16.44;100.00
6829;BME280;17930;48.592;8.868;2022-09-09T06:56:19;96488.03;;;16.68;100.00
6829;BME280;17930;48.592;8.868;2022-09-09T06:58:46;96485.16;;;16.90;100.00
6829;BME280;17930;48.592;8.868;2022-09-09T07:01:15;96477.25;;;16.90;100.00
6829;BME280;17930;48.592;8.868;2022-09-09T07:03:45;96479.44;;;16.88;100.00
6829;BME280;17930;48.592;8.868;2022-09-09T07:06:15;96493.84;;;16.82;100.00
6829;BME280;17930;48.592;8.868;2022-09-09T07:08:43;96497.31;;;16.74;100.00
6829;BME280;17930;48.592;8.868;2022-09-09T07:11:10;96491.97;;;16.91;100.00
6829;BME280;17930;48.592;8.868;2022-09-09T07:13:38;96493.28;;;17.05;100.00
6829;BME280;17930;48.592;8.868;2022-09-09T07:16:06;96488.56;;;17.19;100.00
6829;BME280;17930;48.592;8.868;2022-09-09T07:18:33;96491.13;;;17.36;100.00
6829;BME280;17930;48.592;8.868;2022-09-09T07:21:00;96488.16;;;17.78;100.00
6829;BME280;17930;48.592;8.868;2022-09-09T07:23:28;96487.78;;;18.64;100.00
6829;BME280;17930;48.592;8.868;2022-09-09T07:25:55;96484.28;;;18.60;100.00
6829;BME280;17930;48.592;8.868;2022-09-09T07:28:22;96489.28;;;18.30;100.00
6829;BME280;17930;48.592;8.868;2022-09-09T07:30:57;96491.28;;;18.33;100.00
6829;BME280;17930;48.592;8.868;2022-09-09T07:33:25;96487.50;;;18.22;100.00
6829;BME280;17930;48.592;8.868;2022-09-09T07:35:52;96482.66;;;18.03;100.00
6829;BME280;17930;48.592;8.868;2022-09-09T07:38:20;96496.56;;;18.33;100.00
6829;BME280;17930;48.592;8.868;2022-09-09T07:40:48;96505.63;;;18.55;100.00
6829;BME280;17930;48.592;8.868;2022-09-09T07:43:14;96496.88;;;19.35;100.00
6829;BME280;17930;48.592;8.868;2022-09-09T07:45:42;96499.44;;;19.70;100.00
6829;BME280;17930;48.592;8.868;2022-09-09T07:48:10;96499.81;;;20.08;100.00
6829;BME280;17930;48.592;8.868;2022-09-09T07:50:37;96494.47;;;20.93;100.00
6829;BME280;17930;48.592;8.868;2022-09-09T07:53:04;96493.34;;;21.74;100.00
6829;BME280;17930;48.592;8.868;2022-09-09T07:55:31;96492.38;;;22.01;100.00
6829;BME280;17930;48.592;8.868;2022-09-09T07:57:58;96494.47;;;21.92;100.00
6829;BME280;17930;48.592;8.868;2022-09-09T08:00:25;96501.63;;;22.89;100.00
6829;BME280;17930;48.592;8.868;2022-09-09T08:02:52;96503.63;;;23.95;100.00
6829;BME280;17930;48.592;8.868;2022-09-09T08:05:20;96514.91;;;24.15;100.00
6829;BME280;17930;48.592;8.868;2022-09-09T08:07:48;96507.44;;;24.27;100.00
6829;BME280;17930;48.592;8.868;2022-09-09T08:10:15;96507.44;;;24.60;100.00
6829;BME280;17930;48.592;8.868;2022-09-09T08:12:42;96513.44;;;25.32;100.00
6829;BME280;17930;48.592;8.868;2022-09-09T08:15:08;96512.47;;;26.22;100.00
6829;BME280;17930;48.592;8.868;2022-09-09T08:17:35;96505.78;;;25.84;100.00
6829;BME280;17930;48.592;8.868;2022-09-09T08:20:03;96501.13;;;25.71;100.00
6829;BME280;17930;48.592;8.868;2022-09-09T08:22:32;96512.31;;;24.51;100.00
6829;BME280;17930;48.592;8.868;2022-09-09T08:24:59;96513.31;;;24.75;100.00
6829;BME280;17930;48.592;8.868;2022-09-09T08:27:27;96512.47;;;25.58;100.00
6829;BME280;17930;48.592;8.868;2022-09-09T08:29:54;96506.06;;;26.43;100.00
6829;BME280;17930;48.592;8.868;2022-09-09T08:32:22;96500.72;;;26.61;100.00
6829;BME280;17930;48.592;8.868;2022-09-09T08:34:48;96509.19;;;27.81;99.04
6829;BME280;17930;48.592;8.868;2022-09-09T08:37:16;96501.28;;;28.52;98.68
6829;BME280;17930;48.592;8.868;2022-09-09T08:39:44;96504.66;;;27.53;100.00
6829;BME280;17930;48.592;8.868;2022-09-09T08:42:29;96526.69;;;24.43;100.00
6829;BME280;17930;48.592;8.868;2022-09-09T08:45:11;96529.44;;;22.51;100.00
6829;BME280;17930;48.592;8.868;2022-09-09T08:47:43;96532.81;;;20.80;100.00
6829;BME280;17930;48.592;8.868;2022-09-09T08:50:17;96532.34;;;19.57;100.00
6829;BME280;17930;48.592;8.868;2022-09-09T08:52:52;96530.75;;;19.05;100.00
6829;BME280;17930;48.592;8.868;2022-09-09T08:55:25;96520.00;;;19.02;100.00
6829;BME280;17930;48.592;8.868;2022-09-09T08:57:54;96522.25;;;19.24;100.00
6829;BME280;17930;48.592;8.868;2022-09-09T09:00:22;96508.75;;;19.64;100.00
6829;BME280;17930;48.592;8.868;2022-09-09T09:03:01;96504.09;;;20.82;100.00
6829;BME280;17930;48.592;8.868;2022-09-09T09:05:36;96508.91;;;21.42;100.00
6829;BME280;17930;48.592;8.868;2022-09-09T09:08:10;96520.13;;;21.35;100.00
6829;BME280;17930;48.592;8.868;2022-09-09T09:10:45;96499.34;;;21.71;100.00
6829;BME280;17930;48.592;8.868;2022-09-09T09:13:15;96519.13;;;20.78;100.00
6829;BME280;17930;48.592;8.868;2022-09-09T09:15:44;96528.53;;;20.06;100.00
6829;BME280;17930;48.592;8.868;2022-09-09T09:18:13;96505.09;;;20.93;100.00
6829;BME280;17930;48.592;8.868;2022-09-09T09:20:50;96502.66;;;21.50;100.00
6829;BME280;17930;48.592;8.868;2022-09-09T09:23:22;96491.56;;;23.24;100.00
6829;BME280;17930;48.592;8.868;2022-09-09T09:25:52;96484.03;;;25.32;100.00
6829;BME280;17930;48.592;8.868;2022-09-09T09:28:24;96477.84;;;27.08;100.00
6829;BME280;17930;48.592;8.868;2022-09-09T09:30:54;96475.53;;;27.55;100.00
6829;BME280;17930;48.592;8.868;2022-09-09T09:33:26;96481.28;;;27.02;100.00
6829;BME280;17930;48.592;8.868;2022-09-09T09:35:55;96476.88;;;26.11;100.00
6829;BME280;17930;48.592;8.868;2022-09-09T09:38:23;96479.66;;;27.88;100.00
6829;BME280;17930;48.592;8.868;2022-09-09T09:40:53;96480.84;;;26.62;100.00
6829;BME280;17930;48.592;8.868;2022-09-09T09:43:26;96475.16;;;27.60;100.00
6829;BME280;17930;48.592;8.868;2022-09-09T09:45:54;96473.28;;;27.12;100.00
6829;BME280;17930;48.592;8.868;2022-09-09T09:48:20;96473.78;;;26.05;100.00
6829;BME280;17930;48.592;8.868;2022-09-09T09:50:50;96480.06;;;25.09;100.00
6829;BME280;17930;48.592;8.868;2022-09-09T09:53:21;96473.53;;;23.66;100.00
6829;BME280;17930;48.592;8.868;2022-09-09T09:55:54;96458.78;;;23.20;100.00
6829;BME280;17930;48.592;8.868;2022-09-09T09:58:21;96471.25;;;23.38;100.00
6829;BME280;17930;48.592;8.868;2022-09-09T10:00:50;96463.41;;;24.07;100.00
6829;BME280;17930;48.592;8.868;2022-09-09T10:03:24;96465.66;;;24.05;100.00
6829;BME280;17930;48.592;8.868;2022-09-09T10:05:51;96475.38;;;22.65;100.00
6829;BME280;17930;48.592;8.868;2022-09-09T10:08:19;96469.13;;;22.55;100.00
6829;BME280;17930;48.592;8.868;2022-09-09T10:11:02;96467.19;;;23.73;100.00
6829;BME280;17930;48.592;8.868;2022-09-09T10:13:39;96467.47;;;23.98;100.00
6829;BME280;17930;48.592;8.868;2022-09-09T10:16:22;96461.06;;;24.35;100.00
6829;BME280;17930;48.592;8.868;2022-09-09T10:18:58;96465.09;;;22.86;100.00
6829;BME280;17930;48.592;8.868;2022-09-09T10:21:36;96458.81;;;22.75;100.00
6829;BME280;17930;48.592;8.868;2022-09-09T10:27:22;96465.22;;;22.49;100.00
6829;BME280;17930;48.592;8.868;2022-09-09T10:30:01;96475.31;;;22.02;100.00
6829;BME280;17930;48.592;8.868;2022-09-09T10:32:42;96465.44;;;22.21;100.00
6829;BME280;17930;48.592;8.868;2022-09-09T10:35:29;96468.31;;;22.32;100.00
6829;BME280;17930;48.592;8.868;2022-09-09T10:38:15;96465.34;;;23.26;100.00
6829;BME280;17930;48.592;8.868;2022-09-09T10:40:48;96478.66;;;23.00;100.00
6829;BME280;17930;48.592;8.868;2022-09-09T10:43:38;96482.22;;;22.66;100.00
6829;BME280;17930;48.592;8.868;2022-09-09T10:46:14;96487.19;;;23.35;100.00
6829;BME280;17930;48.592;8.868;2022-09-09T10:48:56;96496.72;;;22.28;100.00
6829;BME280;17930;48.592;8.868;2022-09-09T10:51:35;96507.44;;;21.60;100.00
6829;BME280;17930;48.592;8.868;2022-09-09T10:57:04;96526.72;;;19.71;100.00
6829;BME280;17930;48.592;8.868;2022-09-09T10:59:38;96527.50;;;19.00;100.00
6829;BME280;17930;48.592;8.868;2022-09-09T11:02:17;96538.53;;;18.90;100.00
6829;BME280;17930;48.592;8.868;2022-09-09T11:04:55;96546.84;;;18.68;100.00
6829;BME280;17930;48.592;8.868;2022-09-09T11:07:28;96560.69;;;18.33;100.00
6829;BME280;17930;48.592;8.868;2022-09-09T11:10:12;96549.00;;;17.61;100.00
6829;BME280;17930;48.592;8.868;2022-09-09T11:12:56;96546.59;;;17.11;100.00
6829;BME280;17930;48.592;8.868;2022-09-09T11:15:39;96540.13;;;17.00;100.00
6829;BME280;17930;48.592;8.868;2022-09-09T11:18:18;96530.47;;;17.12;100.00
6829;BME280;17930;48.592;8.868;2022-09-09T11:20:48;96538.16;;;17.26;100.00
6829;BME280;17930;48.592;8.868;2022-09-09T11:23:18;96537.22;;;17.30;100.00
6829;BME280;17930;48.592;8.868;2022-09-09T11:25:51;96521.44;;;17.22;100.00
6829;BME280;17930;48.592;8.868;2022-09-09T11:28:29;96521.66;;;17.37;100.00
6829;BME280;17930;48.592;8.868;2022-09-09T11:31:19;96527.34;;;17.47;100.00
6829;BME280;17930;48.592;8.868;2022-09-09T11:33:58;96519.69;;;17.95;100.00
6829;BME280;17930;48.592;8.868;2022-09-09T11:36:42;96525.16;;;18.31;100.00
6829;BME280;17930;48.592;8.868;2022-09-09T11:39:32;96528.91;;;18.30;100.00
6829;BME280;17930;48.592;8.868;2022-09-09T11:42:06;96532.63;;;18.29;100.00
6829;BME280;17930;48.592;8.868;2022-09-09T11:44:33;96531.09;;;18.28;100.00
6829;BME280;17930;48.592;8.868;2022-09-09T11:47:01;96519.13;;;18.98;100.00
6829;BME280;17930;48.592;8.868;2022-09-09T11:49:30;96511.34;;;19.88;100.00
6829;BME280;17930;48.592;8.868;2022-09-09T11:52:11;96506.59;;;20.63;100.00
6829;BME280;17930;48.592;8.868;2022-09-09T11:54:46;96513.63;;;21.33;100.00
6829;BME280;17930;48.592;8.868;2022-09-09T11:57:24;96504.84;;;23.46;100.00
6829;BME280;17930;48.592;8.868;2022-09-09T11:59:53;96505.81;;;24.88;100.00
6829;BME280;17930;48.592;8.868;2022-09-09T12:02:24;96500.50;;;25.95;100.00
6829;BME280;17930;48.592;8.868;2022-09-09T12:04:59;96499.44;;;26.20;100.00
6829;BME280;17930;48.592;8.868;2022-09-09T12:07:33;96504.75;;;22.95;100.00
6829;BME280;17930;48.592;8.868;2022-09-09T12:10:04;96515.84;;;21.62;100.00
6829;BME280;17930;48.592;8.868;2022-09-09T12:12:44;96508.53;;;21.09;100.00
6829;BME280;17930;48.592;8.868;2022-09-09T12:15:26;96517.84;;;20.72;100.00
6829;BME280;17930;48.592;8.868;2022-09-09T12:17:57;96507.41;;;20.37;100.00
6829;BME280;17930;48.592;8.868;2022-09-09T12:20:31;96508.91;;;20.65;100.00
6829;BME280;17930;48.592;8.868;2022-09-09T12:23:20;96507.25;;;20.88;100.00
6829;BME280;17930;48.592;8.868;2022-09-09T12:25:57;96513.16;;;21.12;100.00
6829;BME280;17930;48.592;8.868;2022-09-09T12:28:41;96516.88;;;21.42;100.00
6829;BME280;17930;48.592;8.868;2022-09-09T12:31:18;96500.84;;;21.38;100.00
6829;BME280;17930;48.592;8.868;2022-09-09T12:33:49;96494.94;;;21.98;100.00
6829;BME280;17930;48.592;8.868;2022-09-09T12:36:20;96491.56;;;23.24;100.00
6829;BME280;17930;48.592;8.868;2022-09-09T12:38:48;96484.28;;;23.47;100.00
6829;BME280;17930;48.592;8.868;2022-09-09T12:41:21;96493.50;;;22.38;100.00
6829;BME280;17930;48.592;8.868;2022-09-09T12:43:49;96487.50;;;22.63;100.00
6829;BME280;17930;48.592;8.868;2022-09-09T12:46:23;96476.41;;;23.28;100.00
6829;BME280;17930;48.592;8.868;2022-09-09T12:48:55;96470.59;;;24.36;100.00
6829;BME280;17930;48.592;8.868;2022-09-09T12:51:25;96455.19;;;26.36;94.14
6829;BME280;17930;48.592;8.868;2022-09-09T12:53:54;96457.88;;;26.47;85.16
6829;BME280;17930;48.592;8.868;2022-09-09T12:56:22;96454.69;;;26.10;85.59
6829;BME280;17930;48.592;8.868;2022-09-09T12:58:53;96456.09;;;25.80;83.22
6829;BME280;17930;48.592;8.868;2022-09-09T13:01:23;96462.97;;;24.77;92.39
6829;BME280;17930;48.592;8.868;2022-09-09T13:03:50;96468.53;;;25.52;88.82
6829;BME280;17930;48.592;8.868;2022-09-09T13:06:23;96463.97;;;24.23;94.01
6829;BME280;17930;48.592;8.868;2022-09-09T13:08:51;96470.75;;;22.63;100.00
6829;BME280;17930;48.592;8.868;2022-09-09T13:11:21;96464.69;;;21.83;100.00
6829;BME280;17930;48.592;8.868;2022-09-09T13:13:51;96470.56;;;22.11;100.00
6829;BME280;17930;48.592;8.868;2022-09-09T13:16:21;96463.53;;;22.85;100.00
6829;BME280;17930;48.592;8.868;2022-09-09T13:18:49;96453.31;;;25.02;91.66
6829;BME280;17930;48.592;8.868;2022-09-09T13:21:16;96441.31;;;26.07;84.04
6829;BME280;17930;48.592;8.868;2022-09-09T13:23:49;96441.00;;;25.44;83.16
6829;BME280;17930;48.592;8.868;2022-09-09T13:26:22;96445.25;;;23.87;91.19
6829;BME280;17930;48.592;8.868;2022-09-09T13:28:49;96451.25;;;22.77;100.00